Altheimer, AR

11:05 PM CDT on July 11, 2014 (GMT -0500)
Grider (KPBF) Elev 207 ft | 34.17 °N, 91.93 °W | Change Station

Current weather conditions updated 12 minutes ago

Clear
Clear
76 °F
Feels Like 76 °F
N
0
Wind Variable Wind from North

Tomorrow is forecast to be Much Warmer than today.

Today
High -- | Low -- °F
--% Chance of Precip.
Yesterday
High -- | Low -- °F
Precip. -- in
6:04 AM 8:21 PM
Full, 100% visible
Pressure 30.13 in
Visibility 10.0 miles
Clouds Clear
Dew Point 73 °F
Humidity 91%
Rainfall 0.02 in
Snow Depth Not available.
UV 0 out of 12
Pollen 3.40 out of 12
Air Quality Not available.
Flu Activity No Activity
METAR KPBF 120353Z AUTO 00000KT 10SM CLR 24/23 A3014 RMK AO2 SLP203 T02440228

More Conditions Fewer Conditions

Pressure 30.13 in
Visibility 10.0 miles
Clouds Clear
Dew Point 73 °F
Humidity 91%
Rainfall 0.02 in
Snow Depth Not available.
UV 0 out of 12
Pollen 3.40 out of 12
Air Quality Not available.
Flu Activity No Activity
METAR KPBF 120353Z AUTO 00000KT 10SM CLR 24/23 A3014 RMK AO2 SLP203 T02440228

More Conditions Fewer Conditions

10-Day Weather Forecast

Almanac

Astronomy

Jul. 11, 2014 Rise Set
Actual Time 6:04 AM CDT 8:21 PM CDT
Civil Twilight 5:35 AM CDT 8:50 PM CDT
Nautical Twilight 4:59 AM CDT 9:25 PM CDT
Astronomical Twilight 4:21 AM CDT 10:04 PM CDT
Moon 7:35 PM CDT (7/11) 5:14 AM CDT (7/11)
Length of Visible Light 15h 15m
Length of Day
14h 17m
Tomorrow will be 0m 56s shorter.
Full, 100% of the Moon is Illuminated
Jul 12
Full
Jul 12
Full
Jul 18
Last Quarter
Jul 26
New
Aug 3
First Quarter

Today's Extremes

State Highs State Lows

Community

WunderPhotos

Upload Photos

1,732,699 photos uploaded!

Nearby

Snow Depth

Station Depth Elevation
No new snow has been reported.

Earthquake Activity

City Distance Mag. Time & Date
No recent earthquake activity has been reported nearby.
Minimum magnitude displayed is 2.5.

Coastal Water Temperatures

Place Temperature
No Stations Reporting

Nearby Weather Stations

Station Location Temp. Heat Index Dew Point Humidity Wind Precip. Elev Updated Type
MesoWest MOSCOW , Moscow, AR 80 °F 78 °F - - North  at  - 0.00 in / hr 209 ft 8:15 PM CDT MADIS
MesoWest UAPB CAMPUS-PB , Pine Bluff, AR 75 °F 73 °F 74 °F 95% NW  at  0 mph 0.00 in / hr 231 ft 10:00 PM CDT MADIS
MesoWest VIKING , White Hall, AR 83 °F 81 °F - - North  at  - 0.00 in / hr 229 ft 8:40 PM CDT MADIS
Pine Bluff - Deerfield, Pine Bluff, AR 76.1 °F 76 °F 75 °F 95% South  at  0.0 mph 0.00 in / hr 228 ft 11:05 PM CDT Rapid Fire
MesoWest STGRTS , Stuttgart, AR 74 °F 72 °F - - North  at  - 0.00 in / hr 203 ft 9:35 PM CDT MADIS
MesoWest GRADY , Grady, AR 80 °F 78 °F - - North  at  - 0.00 in / hr 191 ft 8:05 PM CDT MADIS

Show More Stations Show Fewer Stations